Time;durP1;ratioP1;P1;durP2;ratioP2;P2;SDS_P1;SDS_P2;PMS_P1;PMS_P2;Temp;Humidity;BMP_temperature;BMP_pressure;BME280_temperature;BME280_humidity;BME280_pressure;Samples;Min_cycle;Max_cycle;Signal;HPM_P1;HPM_P2
2023/07/03 00:00:58;;;;;;;;;;;;;;;;;;5032732;28;20402;-67
2023/07/03 00:03:24;;;;;;;;;;;;;;;;;;5033848;28;19968;-66
2023/07/03 00:05:51;;;;;;;;;;;;;;;;;;5033184;28;19932;-67
2023/07/03 00:08:18;;;;;;;;;;;;;;;;;;5033540;28;20455;-67
2023/07/03 00:10:44;;;;;;;;;;;;;;;;;;5032779;28;19929;-66
2023/07/03 00:13:11;;;;;;;;;;;;;;;;;;5033692;28;20015;-66
2023/07/03 00:15:38;;;;;;;;;;;;;;;;;;5033617;28;19925;-67
2023/07/03 00:18:06;;;;;;;;;;;;;;;;;;5032812;28;19925;-67
2023/07/03 00:20:32;;;;;;;;;;;;;;;;;;5032841;28;19925;-67
2023/07/03 00:22:59;;;;;;;;;;;;;;;;;;5033240;28;19933;-65
2023/07/03 00:25:25;;;;;;;;;;;;;;;;;;5033407;28;20438;-66
2023/07/03 00:27:53;;;;;;;;;;;;;;;;;;5032979;28;19925;-67
2023/07/03 00:30:20;;;;;;;;;;;;;;;;;;5031889;28;19979;-67
2023/07/03 00:32:46;;;;;;;;;;;;;;;;;;5032968;28;19932;-67
2023/07/03 00:35:14;;;;;;;;;;;;;;;;;;5032900;28;20021;-67
2023/07/03 00:37:40;;;;;;;;;;;;;;;;;;5032788;28;19931;-67
2023/07/03 00:40:07;;;;;;;;;;;;;;;;;;5032499;28;20024;-67
2023/07/03 00:42:34;;;;;;;;;;;;;;;;;;5032556;28;20399;-67
2023/07/03 00:45:00;;;;;;;;;;;;;;;;;;5033079;28;20302;-67
2023/07/03 00:47:27;;;;;;;;;;;;;;;;;;5032596;28;19925;-67
2023/07/03 00:49:53;;;;;;;;;;;;;;;;;;5017798;28;19925;-67
2023/07/03 00:52:22;;;;;;;;;;;;;;;;;;5013129;28;19941;-67
2023/07/03 00:54:48;;;;;;;;;;;;;;;;;;5012662;28;20442;-66
2023/07/03 00:57:16;;;;;;;;;;;;;;;;;;5013087;28;20020;-67
2023/07/03 00:59:42;;;;;;;;;;;;;;;;;;5012048;28;19925;-67
2023/07/03 01:02:11;;;;;;;;;;;;;;;;;;5012735;28;19932;-67
2023/07/03 01:04:40;;;;;;;;;;;;;;;;;;5012209;28;20705;-67
2023/07/03 01:07:08;;;;;;;;;;;;;;;;;;5012706;28;20285;-66
2023/07/03 01:09:42;;;;;;;;;;;;;;;;;;5011944;28;20012;-67
2023/07/03 01:12:09;;;;;;;;;;;;;;;;;;5012599;28;19948;-65
2023/07/03 01:14:36;;;;;;;;;;;;;;;;;;5011935;28;19932;-67
2023/07/03 01:17:03;;;;;;;;;;;;;;;;;;5012540;28;19936;-66
2023/07/03 01:19:31;;;;;;;;;;;;;;;;;;5012028;28;19933;-66
2023/07/03 01:21:59;;;;;;;;;;;;;;;;;;5012633;28;19936;-67
2023/07/03 01:24:36;;;;;;;;;;;;;;;;;;5012041;28;19948;-66
2023/07/03 01:27:04;;;;;;;;;;;;;;;;;;5012153;28;19931;-66
2023/07/03 01:29:31;;;;;;;;;;;;;;;;;;5011466;28;19936;-65
2023/07/03 01:31:58;;;;;;;;;;;;;;;;;;5011923;28;19926;-66
2023/07/03 01:34:26;;;;;;;;;;;;;;;;;;5023513;28;20019;-65
2023/07/03 01:36:53;;;;;;;;;;;;;;;;;;5031551;28;19925;-67
2023/07/03 01:39:20;;;;;;;;;;;;;;;;;;5031859;28;20003;-67
2023/07/03 01:41:48;;;;;;;;;;;;;;;;;;5030731;28;20369;-67
2023/07/03 01:44:14;;;;;;;;;;;;;;;;;;5032020;28;19925;-67
2023/07/03 01:46:41;;;;;;;;;;;;;;;;;;5030440;28;20007;-67
2023/07/03 01:49:12;;;;;;;;;;;;;;;;;;5023892;28;20159;-66
2023/07/03 01:51:42;;;;;;;;;;;;;;;;;;5011629;28;19925;-66
2023/07/03 01:54:10;;;;;;;;;;;;;;;;;;5011785;28;19926;-66
2023/07/03 01:56:39;;;;;;;;;;;;;;;;;;5011280;28;19929;-65
2023/07/03 01:59:09;;;;;;;;;;;;;;;;;;5012051;28;20570;-67
2023/07/03 02:01:42;;;;;;;;;;;;;;;;;;5011958;28;19925;-67
2023/07/03 02:04:15;;;;;;;;;;;;;;;;;;5011667;28;20325;-67
2023/07/03 02:06:44;;;;;;;;;;;;;;;;;;5011809;28;19930;-67
2023/07/03 02:09:11;;;;;;;;;;;;;;;;;;5011531;28;19925;-67
2023/07/03 02:11:37;;;;;;;;;;;;;;;;;;5011340;28;20004;-67
2023/07/03 02:14:05;;;;;;;;;;;;;;;;;;5011645;28;19932;-67
2023/07/03 02:16:33;;;;;;;;;;;;;;;;;;5012519;28;19929;-67
2023/07/03 02:18:59;;;;;;;;;;;;;;;;;;5012017;28;19933;-67
2023/07/03 02:21:27;;;;;;;;;;;;;;;;;;5012045;28;19933;-67
2023/07/03 02:23:53;;;;;;;;;;;;;;;;;;5012036;28;20020;-67
2023/07/03 02:26:20;;;;;;;;;;;;;;;;;;5011490;28;20008;-67
2023/07/03 02:28:46;;;;;;;;;;;;;;;;;;5010841;28;19940;-67
2023/07/03 02:31:12;;;;;;;;;;;;;;;;;;5010836;28;20314;-66
2023/07/03 02:33:40;;;;;;;;;;;;;;;;;;5010925;28;19932;-66
2023/07/03 02:36:07;;;;;;;;;;;;;;;;;;5010858;28;19932;-66
2023/07/03 02:38:33;;;;;;;;;;;;;;;;;;5011000;28;20291;-66
2023/07/03 02:40:59;;;;;;;;;;;;;;;;;;5010539;28;20368;-66
2023/07/03 02:43:26;;;;;;;;;;;;;;;;;;5011159;28;19925;-66
2023/07/03 02:45:52;;;;;;;;;;;;;;;;;;5010646;28;20414;-66
2023/07/03 02:48:19;;;;;;;;;;;;;;;;;;5011437;28;19925;-67
2023/07/03 02:50:46;;;;;;;;;;;;;;;;;;5029842;28;19941;-65
2023/07/03 02:53:13;;;;;;;;;;;;;;;;;;5032730;28;19929;-67
2023/07/03 02:55:39;;;;;;;;;;;;;;;;;;5036875;28;19970;-65
2023/07/03 02:58:06;;;;;;;;;;;;;;;;;;5037481;28;19925;-65
2023/07/03 03:00:32;;;;;;;;;;;;;;;;;;5036562;28;20410;-67
2023/07/03 03:02:59;;;;;;;;;;;;;;;;;;5037213;28;19925;-67
2023/07/03 03:05:26;;;;;;;;;;;;;;;;;;5036764;28;19925;-65
2023/07/03 03:07:53;;;;;;;;;;;;;;;;;;5038095;28;19936;-66
2023/07/03 03:10:20;;;;;;;;;;;;;;;;;;5036860;28;20314;-65
2023/07/03 03:12:46;;;;;;;;;;;;;;;;;;5036975;28;19925;-66
2023/07/03 03:15:13;;;;;;;;;;;;;;;;;;5037149;28;19925;-67
2023/07/03 03:17:39;;;;;;;;;;;;;;;;;;5036519;28;19932;-67
2023/07/03 03:20:08;;;;;;;;;;;;;;;;;;5036815;28;19931;-67
2023/07/03 03:22:34;;;;;;;;;;;;;;;;;;5036754;28;20260;-66
2023/07/03 03:25:02;;;;;;;;;;;;;;;;;;5037589;28;19925;-66
2023/07/03 03:27:28;;;;;;;;;;;;;;;;;;5036589;28;19925;-65
2023/07/03 03:29:55;;;;;;;;;;;;;;;;;;5036784;28;20301;-67
2023/07/03 03:32:21;;;;;;;;;;;;;;;;;;5036443;28;20142;-67
2023/07/03 03:34:48;;;;;;;;;;;;;;;;;;5037174;28;19925;-67
2023/07/03 03:37:14;;;;;;;;;;;;;;;;;;5036595;28;20393;-65
2023/07/03 03:39:41;;;;;;;;;;;;;;;;;;5036456;28;19931;-67
2023/07/03 03:42:09;;;;;;;;;;;;;;;;;;5036229;28;20020;-67
2023/07/03 03:44:35;;;;;;;;;;;;;;;;;;5036861;28;20365;-67
2023/07/03 03:47:02;;;;;;;;;;;;;;;;;;5036600;28;19933;-67
2023/07/03 03:49:29;;;;;;;;;;;;;;;;;;5034689;28;20391;-67
2023/07/03 03:51:55;;;;;;;;;;;;;;;;;;5036791;28;19979;-67
2023/07/03 03:54:22;;;;;;;;;;;;;;;;;;5036300;28;19929;-66
2023/07/03 03:56:48;;;;;;;;;;;;;;;;;;5036551;28;19947;-67
2023/07/03 03:59:17;;;;;;;;;;;;;;;;;;5036104;28;19925;-67
2023/07/03 04:01:43;;;;;;;;;;;;;;;;;;5036466;28;20407;-67
2023/07/03 04:04:09;;;;;;;;;;;;;;;;;;5035874;28;20025;-67
2023/07/03 04:06:37;;;;;;;;;;;;;;;;;;5032820;28;20371;-67
2023/07/03 04:09:04;;;;;;;;;;;;;;;;;;5033132;28;19925;-67
2023/07/03 04:11:31;;;;;;;;;;;;;;;;;;5033188;28;19931;-67
2023/07/03 04:13:57;;;;;;;;;;;;;;;;;;5032961;28;19931;-67
2023/07/03 04:16:26;;;;;;;;;;;;;;;;;;5033626;28;19925;-67
2023/07/03 04:18:52;;;;;;;;;;;;;;;;;;5033033;28;19936;-67
2023/07/03 04:21:19;;;;;;;;;;;;;;;;;;5033014;28;20379;-67
2023/07/03 04:23:45;;;;;;;;;;;;;;;;;;5033123;28;19925;-67
2023/07/03 04:26:12;;;;;;;;;;;;;;;;;;5032754;28;19929;-67
2023/07/03 04:28:38;;;;;;;;;;;;;;;;;;5032844;28;19925;-67
2023/07/03 04:31:05;;;;;;;;;;;;;;;;;;5032467;28;19931;-67
2023/07/03 04:33:33;;;;;;;;;;;;;;;;;;5032927;28;19925;-67
2023/07/03 04:35:59;;;;;;;;;;;;;;;;;;5032499;28;20032;-67
2023/07/03 04:38:26;;;;;;;;;;;;;;;;;;5032902;28;20339;-67
2023/07/03 04:40:53;;;;;;;;;;;;;;;;;;5031970;28;19936;-67
2023/07/03 04:43:20;;;;;;;;;;;;;;;;;;5033115;28;20375;-67
2023/07/03 04:45:47;;;;;;;;;;;;;;;;;;5032393;28;19925;-67
2023/07/03 04:48:13;;;;;;;;;;;;;;;;;;5032394;28;19925;-67
2023/07/03 04:50:41;;;;;;;;;;;;;;;;;;5031894;28;19931;-67
2023/07/03 04:53:08;;;;;;;;;;;;;;;;;;5032796;28;20387;-67
2023/07/03 04:55:34;;;;;;;;;;;;;;;;;;5032316;28;19925;-66
2023/07/03 04:58:02;;;;;;;;;;;;;;;;;;5032042;28;20298;-67
2023/07/03 05:00:28;;;;;;;;;;;;;;;;;;5032313;28;19932;-67
2023/07/03 05:02:57;;;;;;;;;;;;;;;;;;5031970;28;20283;-67
2023/07/03 05:05:23;;;;;;;;;;;;;;;;;;5032249;28;19925;-67
2023/07/03 05:07:51;;;;;;;;;;;;;;;;;;5031909;28;20294;-67
2023/07/03 05:10:20;;;;;;;;;;;;;;;;;;5031790;28;19925;-67
2023/07/03 05:12:47;;;;;;;;;;;;;;;;;;5031978;28;19925;-67
2023/07/03 05:15:14;;;;;;;;;;;;;;;;;;5032397;28;19937;-67
2023/07/03 05:17:41;;;;;;;;;;;;;;;;;;5031398;28;19951;-67
2023/07/03 05:20:10;;;;;;;;;;;;;;;;;;5032148;28;19925;-67
2023/07/03 05:22:36;;;;;;;;;;;;;;;;;;5031672;28;19925;-67
2023/07/03 05:25:05;;;;;;;;;;;;;;;;;;5032394;28;20272;-67
2023/07/03 05:27:32;;;;;;;;;;;;;;;;;;5031851;28;19925;-67
2023/07/03 05:29:58;;;;;;;;;;;;;;;;;;5031789;28;20302;-67
2023/07/03 05:32:25;;;;;;;;;;;;;;;;;;5031113;28;19925;-67
2023/07/03 05:34:51;;;;;;;;;;;;;;;;;;5031849;28;19925;-66
2023/07/03 05:37:18;;;;;;;;;;;;;;;;;;5031297;28;19931;-67
2023/07/03 05:39:47;;;;;;;;;;;;;;;;;;5031220;28;20383;-67
2023/07/03 05:42:15;;;;;;;;;;;;;;;;;;5031724;28;20372;-67
2023/07/03 05:44:41;;;;;;;;;;;;;;;;;;5031387;28;19932;-67
2023/07/03 05:47:07;;;;;;;;;;;;;;;;;;5030921;28;19925;-67
2023/07/03 05:49:34;;;;;;;;;;;;;;;;;;5030114;28;19931;-67
2023/07/03 05:52:00;;;;;;;;;;;;;;;;;;5031229;28;19925;-67
2023/07/03 05:54:27;;;;;;;;;;;;;;;;;;5031213;28;20395;-67
2023/07/03 05:56:57;;;;;;;;;;;;;;;;;;5031337;28;20020;-67
2023/07/03 05:59:25;;;;;;;;;;;;;;;;;;5031097;28;19929;-67
2023/07/03 06:01:53;;;;;;;;;;;;;;;;;;5030927;28;19925;-67
2023/07/03 06:04:22;;;;;;;;;;;;;;;;;;5031498;28;20016;-67
2023/07/03 06:06:48;;;;;;;;;;;;;;;;;;5030980;28;20292;-66
2023/07/03 06:09:14;;;;;;;;;;;;;;;;;;5031082;28;20007;-67
2023/07/03 06:11:41;;;;;;;;;;;;;;;;;;5030336;28;19925;-67
2023/07/03 06:14:07;;;;;;;;;;;;;;;;;;5031046;28;19925;-67
2023/07/03 06:16:36;;;;;;;;;;;;;;;;;;5030828;28;19936;-67
2023/07/03 06:19:03;;;;;;;;;;;;;;;;;;5030966;28;19929;-67
2023/07/03 06:21:29;;;;;;;;;;;;;;;;;;5030600;28;19925;-67
2023/07/03 06:23:56;;;;;;;;;;;;;;;;;;5031215;28;20019;-67
2023/07/03 06:26:22;;;;;;;;;;;;;;;;;;5030754;28;19924;-66
2023/07/03 06:28:48;;;;;;;;;;;;;;;;;;5030344;28;20356;-67
2023/07/03 06:31:15;;;;;;;;;;;;;;;;;;5030156;28;20391;-67
2023/07/03 06:33:42;;;;;;;;;;;;;;;;;;5030647;28;19929;-66
2023/07/03 06:36:09;;;;;;;;;;;;;;;;;;5030705;28;19933;-67
2023/07/03 06:38:35;;;;;;;;;;;;;;;;;;5030620;28;19925;-67
2023/07/03 06:41:02;;;;;;;;;;;;;;;;;;5030581;28;20382;-68
2023/07/03 06:43:28;;;;;;;;;;;;;;;;;;5030515;28;19925;-66
2023/07/03 06:45:54;;;;;;;;;;;;;;;;;;5025924;28;20385;-66
2023/07/03 06:48:21;;;;;;;;;;;;;;;;;;5031605;28;19929;-66
2023/07/03 06:50:48;;;;;;;;;;;;;;;;;;5031888;28;20413;-66
2023/07/03 06:53:15;;;;;;;;;;;;;;;;;;5025330;28;19925;-66
2023/07/03 06:55:41;;;;;;;;;;;;;;;;;;5027970;28;19931;-66
2023/07/03 06:58:08;;;;;;;;;;;;;;;;;;5031503;28;20000;-66
2023/07/03 07:00:34;;;;;;;;;;;;;;;;;;5025632;28;20020;-66
2023/07/03 07:03:00;;;;;;;;;;;;;;;;;;5026810;28;20008;-66
2023/07/03 07:05:28;;;;;;;;;;;;;;;;;;5029738;28;19925;-66
2023/07/03 07:07:56;;;;;;;;;;;;;;;;;;5029431;28;20303;-66
2023/07/03 07:10:24;;;;;;;;;;;;;;;;;;5029070;28;20016;-66
2023/07/03 07:12:50;;;;;;;;;;;;;;;;;;5030415;28;19979;-66
2023/07/03 07:15:17;;;;;;;;;;;;;;;;;;5030306;28;20208;-66
2023/07/03 07:17:43;;;;;;;;;;;;;;;;;;5029032;28;20367;-66
2023/07/03 07:20:10;;;;;;;;;;;;;;;;;;5028802;28;20016;-66
2023/07/03 07:22:36;;;;;;;;;;;;;;;;;;5026670;28;20348;-66
2023/07/03 07:25:04;;;;;;;;;;;;;;;;;;5029118;28;19925;-66
2023/07/03 07:27:31;;;;;;;;;;;;;;;;;;5024190;28;19933;-66
2023/07/03 07:29:57;;;;;;;;;;;;;;;;;;5027464;28;20067;-66
2023/07/03 07:32:25;;;;;;;;;;;;;;;;;;5027494;28;20562;-66
2023/07/03 07:34:51;;;;;;;;;;;;;;;;;;5028906;28;20008;-66
2023/07/03 07:37:17;;;;;;;;;;;;;;;;;;5028557;28;19984;-66
2023/07/03 07:39:44;;;;;;;;;;;;;;;;;;5028885;28;19925;-66
2023/07/03 07:42:11;;;;;;;;;;;;;;;;;;5031186;28;19925;-66
2023/07/03 07:44:38;;;;;;;;;;;;;;;;;;5012934;28;20093;-66
2023/07/03 07:47:06;;;;;;;;;;;;;;;;;;5023511;28;20015;-64
2023/07/03 07:49:32;;;;;;;;;;;;;;;;;;5027591;28;19940;-64
2023/07/03 07:51:59;;;;;;;;;;;;;;;;;;5027058;28;19925;-65
2023/07/03 07:54:25;;;;;;;;;;;;;;;;;;5027029;28;20080;-65
2023/07/03 07:56:51;;;;;;;;;;;;;;;;;;5026144;28;19939;-65
2023/07/03 07:59:19;;;;;;;;;;;;;;;;;;5023236;28;19931;-65
2023/07/03 08:01:45;;;;;;;;;;;;;;;;;;5022242;28;20029;-65
2023/07/03 08:04:12;;;;;;;;;;;;;;;;;;5025691;28;20028;-64
2023/07/03 08:06:38;;;;;;;;;;;;;;;;;;5029208;28;19925;-65
2023/07/03 08:09:05;;;;;;;;;;;;;;;;;;5028320;28;20028;-65
2023/07/03 08:11:31;;;;;;;;;;;;;;;;;;5021290;28;20015;-65
2023/07/03 08:13:57;;;;;;;;;;;;;;;;;;5027745;28;19925;-65
2023/07/03 08:16:25;;;;;;;;;;;;;;;;;;5030958;28;19932;-65
2023/07/03 08:18:51;;;;;;;;;;;;;;;;;;5032011;28;20375;-65
2023/07/03 08:21:18;;;;;;;;;;;;;;;;;;5043507;28;19925;-65
2023/07/03 08:23:44;;;;;;;;;;;;;;;;;;5027773;28;19931;-66
2023/07/03 08:26:16;;;;;;;;;;;;;;;;;;5039792;28;20385;-66
2023/07/03 08:28:43;;;;;;;;;;;;;;;;;;5051177;28;19924;-66
2023/07/03 08:31:09;;;;;;;;;;;;;;;;;;5028647;28;19926;-66
2023/07/03 08:33:37;;;;;;;;;;;;;;;;;;5030376;28;20008;-66
2023/07/03 08:36:04;;;;;;;;;;;;;;;;;;5029742;28;19931;-66
2023/07/03 08:38:30;;;;;;;;;;;;;;;;;;5041482;28;19925;-65
2023/07/03 08:40:58;;;;;;;;;;;;;;;;;;5051668;28;19928;-67
2023/07/03 08:43:24;;;;;;;;;;;;;;;;;;5051384;28;19935;-66
2023/07/03 08:45:52;;;;;;;;;;;;;;;;;;5050768;28;19931;-64
2023/07/03 08:48:20;;;;;;;;;;;;;;;;;;5051473;28;19925;-64
2023/07/03 08:50:49;;;;;;;;;;;;;;;;;;5031031;28;20029;-65
2023/07/03 08:53:17;;;;;;;;;;;;;;;;;;5029262;28;19932;-65
2023/07/03 08:55:46;;;;;;;;;;;;;;;;;;5036790;28;19925;-64
2023/07/03 08:58:13;;;;;;;;;;;;;;;;;;5030702;28;20299;-65
2023/07/03 09:00:43;;;;;;;;;;;;;;;;;;5029827;28;19935;-65
2023/07/03 09:03:14;;;;;;;;;;;;;;;;;;5027216;28;20037;-64
2023/07/03 09:05:46;;;;;;;;;;;;;;;;;;5041801;28;19925;-66
2023/07/03 09:08:16;;;;;;;;;;;;;;;;;;5051652;28;19929;-64
2023/07/03 09:10:45;;;;;;;;;;;;;;;;;;5050510;28;19931;-65
2023/07/03 09:13:13;;;;;;;;;;;;;;;;;;5045668;28;19929;-65
2023/07/03 09:15:44;;;;;;;;;;;;;;;;;;5046859;28;19925;-63
2023/07/03 09:18:12;;;;;;;;;;;;;;;;;;5037022;28;19937;-65
2023/07/03 09:20:39;;;;;;;;;;;;;;;;;;5037816;28;19936;-63
2023/07/03 09:23:08;;;;;;;;;;;;;;;;;;5030947;28;20016;-64
2023/07/03 09:25:39;;;;;;;;;;;;;;;;;;5041947;28;20003;-66
2023/07/03 09:28:09;;;;;;;;;;;;;;;;;;5032994;28;19925;-64
2023/07/03 09:30:35;;;;;;;;;;;;;;;;;;5030161;28;19925;-64
2023/07/03 09:33:02;;;;;;;;;;;;;;;;;;5028663;28;20371;-64
2023/07/03 09:35:34;;;;;;;;;;;;;;;;;;5036507;28;20024;-65
2023/07/03 09:38:01;;;;;;;;;;;;;;;;;;5030446;28;19925;-64
2023/07/03 09:40:30;;;;;;;;;;;;;;;;;;5030196;28;19925;-68
2023/07/03 09:42:58;;;;;;;;;;;;;;;;;;5029235;28;20012;-67
2023/07/03 09:45:34;;;;;;;;;;;;;;;;;;5030820;28;19939;-67
2023/07/03 09:48:01;;;;;;;;;;;;;;;;;;5036553;28;20305;-68
2023/07/03 09:50:28;;;;;;;;;;;;;;;;;;5035945;28;20299;-67
2023/07/03 09:52:55;;;;;;;;;;;;;;;;;;5035760;28;19925;-67
2023/07/03 09:55:22;;;;;;;;;;;;;;;;;;5041932;28;19936;-68
2023/07/03 09:57:48;;;;;;;;;;;;;;;;;;5030382;28;20280;-67
2023/07/03 10:00:18;;;;;;;;;;;;;;;;;;5034639;28;19924;-67
2023/07/03 10:02:45;;;;;;;;;;;;;;;;;;5039405;28;19925;-67
2023/07/03 10:05:13;;;;;;;;;;;;;;;;;;5030182;28;19929;-66
2023/07/03 10:07:41;;;;;;;;;;;;;;;;;;5030600;28;19931;-67
2023/07/03 10:10:10;;;;;;;;;;;;;;;;;;5049143;28;19929;-67
2023/07/03 10:12:37;;;;;;;;;;;;;;;;;;5030539;28;20024;-67
2023/07/03 10:15:06;;;;;;;;;;;;;;;;;;5029609;28;20012;-66
2023/07/03 10:17:36;;;;;;;;;;;;;;;;;;5033895;28;19939;-67
2023/07/03 10:20:04;;;;;;;;;;;;;;;;;;5022629;28;20011;-67
2023/07/03 10:22:31;;;;;;;;;;;;;;;;;;5046358;28;19944;-67
2023/07/03 10:25:01;;;;;;;;;;;;;;;;;;5030165;28;19940;-67
2023/07/03 10:27:28;;;;;;;;;;;;;;;;;;5030847;28;19936;-68
2023/07/03 10:29:54;;;;;;;;;;;;;;;;;;5049352;28;20012;-68
2023/07/03 10:32:24;;;;;;;;;;;;;;;;;;5045766;28;20434;-69
2023/07/03 10:34:55;;;;;;;;;;;;;;;;;;5049337;28;19931;-67
2023/07/03 10:37:23;;;;;;;;;;;;;;;;;;5049651;28;19925;-68
2023/07/03 10:39:53;;;;;;;;;;;;;;;;;;5029052;28;20008;-67
2023/07/03 10:42:21;;;;;;;;;;;;;;;;;;5029225;28;20140;-68
2023/07/03 10:44:48;;;;;;;;;;;;;;;;;;5029509;28;20585;-67
2023/07/03 10:47:20;;;;;;;;;;;;;;;;;;5026675;28;19925;-68
2023/07/03 10:49:46;;;;;;;;;;;;;;;;;;5027956;28;20033;-69
2023/07/03 10:52:17;;;;;;;;;;;;;;;;;;5028648;28;19930;-68
2023/07/03 10:54:49;;;;;;;;;;;;;;;;;;5030204;28;19925;-69
2023/07/03 10:57:20;;;;;;;;;;;;;;;;;;5029955;28;20408;-71
2023/07/03 10:59:49;;;;;;;;;;;;;;;;;;5028006;28;20157;-67
2023/07/03 11:02:19;;;;;;;;;;;;;;;;;;5029427;28;19932;-70
2023/07/03 11:04:51;;;;;;;;;;;;;;;;;;5028432;28;19931;-69
2023/07/03 11:07:21;;;;;;;;;;;;;;;;;;5029899;28;19929;-68
2023/07/03 11:09:52;;;;;;;;;;;;;;;;;;5029352;28;20354;-70
2023/07/03 11:12:22;;;;;;;;;;;;;;;;;;5029946;28;20016;-69
2023/07/03 11:14:53;;;;;;;;;;;;;;;;;;5030528;28;19925;-69
2023/07/03 11:17:25;;;;;;;;;;;;;;;;;;5033645;28;19925;-71
2023/07/03 11:19:57;;;;;;;;;;;;;;;;;;5033757;28;20024;-69
2023/07/03 11:22:26;;;;;;;;;;;;;;;;;;5032717;28;19925;-69
2023/07/03 11:25:00;;;;;;;;;;;;;;;;;;5032870;28;19925;-70
2023/07/03 11:27:30;;;;;;;;;;;;;;;;;;5023862;28;20295;-70
2023/07/03 11:29:58;;;;;;;;;;;;;;;;;;5033575;28;19925;-70
2023/07/03 11:32:24;;;;;;;;;;;;;;;;;;5033737;28;19979;-70
2023/07/03 11:34:52;;;;;;;;;;;;;;;;;;5030013;28;19925;-70
2023/07/03 11:37:33;;;;;;;;;;;;;;;;;;5041953;28;19925;-70
2023/07/03 11:40:19;;;;;;;;;;;;;;;;;;5028993;28;20276;-70
2023/07/03 11:42:46;;;;;;;;;;;;;;;;;;5013969;28;19929;-70
2023/07/03 11:45:25;;;;;;;;;;;;;;;;;;5013118;28;20286;-70
2023/07/03 11:47:53;;;;;;;;;;;;;;;;;;5014014;28;20310;-70
2023/07/03 11:50:26;;;;;;;;;;;;;;;;;;5012866;28;19926;-70
2023/07/03 11:52:54;;;;;;;;;;;;;;;;;;5013565;28;19932;-70
2023/07/03 11:55:21;;;;;;;;;;;;;;;;;;5013308;28;20299;-70
2023/07/03 11:57:49;;;;;;;;;;;;;;;;;;5013687;28;20342;-70
2023/07/03 12:00:17;;;;;;;;;;;;;;;;;;5012748;28;19929;-70
2023/07/03 12:02:51;;;;;;;;;;;;;;;;;;5013267;28;19939;-70
2023/07/03 12:05:36;;;;;;;;;;;;;;;;;;5018909;28;19935;-70
2023/07/03 12:08:04;;;;;;;;;;;;;;;;;;5053271;28;20353;-70
2023/07/03 12:10:42;;;;;;;;;;;;;;;;;;5052115;28;20024;-70
2023/07/03 12:13:34;;;;;;;;;;;;;;;;;;5052788;28;19978;-71
2023/07/03 12:16:02;;;;;;;;;;;;;;;;;;5052916;28;19931;-71
2023/07/03 12:18:28;;;;;;;;;;;;;;;;;;5052903;28;20046;-70
2023/07/03 12:20:58;;;;;;;;;;;;;;;;;;5052400;28;19931;-70
2023/07/03 12:23:34;;;;;;;;;;;;;;;;;;5052794;28;20027;-70
2023/07/03 12:26:01;;;;;;;;;;;;;;;;;;5051847;28;19925;-70
2023/07/03 12:28:27;;;;;;;;;;;;;;;;;;5052505;28;20118;-70
2023/07/03 12:31:08;;;;;;;;;;;;;;;;;;5043228;28;20426;-70
2023/07/03 12:33:34;;;;;;;;;;;;;;;;;;5032619;28;20298;-70
2023/07/03 12:36:01;;;;;;;;;;;;;;;;;;5032148;28;19925;-71
2023/07/03 12:38:27;;;;;;;;;;;;;;;;;;5032079;28;20413;-70
2023/07/03 12:40:55;;;;;;;;;;;;;;;;;;5032225;28;20004;-71
2023/07/03 12:43:21;;;;;;;;;;;;;;;;;;5032167;28;20410;-71
2023/07/03 12:45:51;;;;;;;;;;;;;;;;;;5032619;28;19933;-70
2023/07/03 12:48:19;;;;;;;;;;;;;;;;;;5040544;28;19936;-70
2023/07/03 12:50:46;;;;;;;;;;;;;;;;;;5051905;28;19924;-70
2023/07/03 12:53:12;;;;;;;;;;;;;;;;;;5051998;28;19929;-70
2023/07/03 12:55:40;;;;;;;;;;;;;;;;;;5052116;28;19925;-71
2023/07/03 12:58:08;;;;;;;;;;;;;;;;;;5052449;28;19925;-71
2023/07/03 13:00:36;;;;;;;;;;;;;;;;;;5050118;28;19939;-69
2023/07/03 13:03:04;;;;;;;;;;;;;;;;;;5049600;28;19925;-70
2023/07/03 13:05:32;;;;;;;;;;;;;;;;;;5050598;28;20120;-70
2023/07/03 13:07:58;;;;;;;;;;;;;;;;;;5049431;28;20016;-70
2023/07/03 13:10:25;;;;;;;;;;;;;;;;;;5029103;28;19925;-70
2023/07/03 13:13:09;;;;;;;;;;;;;;;;;;5032026;28;20363;-70
2023/07/03 13:15:36;;;;;;;;;;;;;;;;;;5031286;28;20391;-70
2023/07/03 13:18:04;;;;;;;;;;;;;;;;;;5026003;28;19933;-70
2023/07/03 13:20:30;;;;;;;;;;;;;;;;;;5030685;28;19925;-70
2023/07/03 13:22:59;;;;;;;;;;;;;;;;;;5031310;28;20354;-70
2023/07/03 13:25:27;;;;;;;;;;;;;;;;;;5031485;28;19937;-70
2023/07/03 13:27:54;;;;;;;;;;;;;;;;;;5030874;28;19925;-70
2023/07/03 13:30:23;;;;;;;;;;;;;;;;;;5030666;28;19947;-70
2023/07/03 13:32:53;;;;;;;;;;;;;;;;;;5030855;28;19975;-71
2023/07/03 13:35:26;;;;;;;;;;;;;;;;;;5031531;28;19947;-70
2023/07/03 13:37:52;;;;;;;;;;;;;;;;;;5035810;28;19925;-70
2023/07/03 13:40:19;;;;;;;;;;;;;;;;;;5050491;28;19929;-70
2023/07/03 13:42:55;;;;;;;;;;;;;;;;;;5050744;28;20327;-70
2023/07/03 13:45:24;;;;;;;;;;;;;;;;;;5050488;28;19925;-70
2023/07/03 13:47:51;;;;;;;;;;;;;;;;;;5044861;28;19925;-70
2023/07/03 13:50:17;;;;;;;;;;;;;;;;;;5050343;28;19925;-70
2023/07/03 13:52:43;;;;;;;;;;;;;;;;;;5050909;28;20015;-70
2023/07/03 13:55:10;;;;;;;;;;;;;;;;;;5050635;28;20302;-70
2023/07/03 13:57:36;;;;;;;;;;;;;;;;;;5050479;28;19924;-70
2023/07/03 14:00:03;;;;;;;;;;;;;;;;;;5050654;28;20302;-70
2023/07/03 14:02:31;;;;;;;;;;;;;;;;;;5049980;28;19975;-70
2023/07/03 14:04:57;;;;;;;;;;;;;;;;;;5050970;28;19932;-71
2023/07/03 14:07:24;;;;;;;;;;;;;;;;;;5047038;28;20016;-71
2023/07/03 14:09:50;;;;;;;;;;;;;;;;;;5029979;28;20375;-70
2023/07/03 14:12:16;;;;;;;;;;;;;;;;;;5030133;28;19931;-71
2023/07/03 14:14:43;;;;;;;;;;;;;;;;;;5030920;28;20008;-71
2023/07/03 14:17:09;;;;;;;;;;;;;;;;;;5030297;28;19925;-71
2023/07/03 14:19:37;;;;;;;;;;;;;;;;;;5030123;28;20012;-71
2023/07/03 14:22:05;;;;;;;;;;;;;;;;;;5030282;28;20412;-71
2023/07/03 14:24:31;;;;;;;;;;;;;;;;;;5029761;28;19925;-71
2023/07/03 14:26:58;;;;;;;;;;;;;;;;;;5030435;28;19929;-71
2023/07/03 14:29:24;;;;;;;;;;;;;;;;;;5030259;28;19929;-71
2023/07/03 14:31:51;;;;;;;;;;;;;;;;;;5029843;28;19931;-71
2023/07/03 14:34:17;;;;;;;;;;;;;;;;;;5030668;28;19932;-71
2023/07/03 14:36:45;;;;;;;;;;;;;;;;;;5029738;28;20030;-71
2023/07/03 14:39:11;;;;;;;;;;;;;;;;;;5030271;28;20298;-71
2023/07/03 14:41:38;;;;;;;;;;;;;;;;;;5029275;28;19925;-71
2023/07/03 14:44:04;;;;;;;;;;;;;;;;;;5030640;28;20016;-70
2023/07/03 14:46:30;;;;;;;;;;;;;;;;;;5029748;28;19931;-70
2023/07/03 14:48:57;;;;;;;;;;;;;;;;;;5029675;28;19925;-70
2023/07/03 14:51:23;;;;;;;;;;;;;;;;;;5010233;28;20295;-71
2023/07/03 14:53:51;;;;;;;;;;;;;;;;;;5010042;28;20016;-71
2023/07/03 14:56:17;;;;;;;;;;;;;;;;;;5010835;28;20024;-70
2023/07/03 14:58:44;;;;;;;;;;;;;;;;;;5009454;28;20294;-71
2023/07/03 15:01:10;;;;;;;;;;;;;;;;;;5009750;28;20012;-71
2023/07/03 15:03:37;;;;;;;;;;;;;;;;;;5009588;28;20013;-70
2023/07/03 15:06:06;;;;;;;;;;;;;;;;;;5010190;28;19935;-70
2023/07/03 15:08:32;;;;;;;;;;;;;;;;;;5010099;28;20303;-70
2023/07/03 15:11:00;;;;;;;;;;;;;;;;;;5010339;28;19932;-69
2023/07/03 15:13:26;;;;;;;;;;;;;;;;;;5010402;28;19932;-70
2023/07/03 15:15:52;;;;;;;;;;;;;;;;;;5014497;28;20017;-70
2023/07/03 15:18:19;;;;;;;;;;;;;;;;;;5027397;28;19967;-70
2023/07/03 15:20:46;;;;;;;;;;;;;;;;;;5028821;28;19964;-69
2023/07/03 15:23:14;;;;;;;;;;;;;;;;;;5030143;28;20374;-70
2023/07/03 15:25:40;;;;;;;;;;;;;;;;;;5029493;28;20298;-69
2023/07/03 15:28:08;;;;;;;;;;;;;;;;;;5030076;28;19925;-69
2023/07/03 15:30:38;;;;;;;;;;;;;;;;;;5029137;28;20016;-69
2023/07/03 15:33:04;;;;;;;;;;;;;;;;;;5029426;28;19932;-70
2023/07/03 15:35:31;;;;;;;;;;;;;;;;;;5038050;28;20461;-69
2023/07/03 15:37:57;;;;;;;;;;;;;;;;;;5049650;28;19931;-69
2023/07/03 15:40:23;;;;;;;;;;;;;;;;;;5049476;28;20457;-66
2023/07/03 15:42:50;;;;;;;;;;;;;;;;;;5049275;28;19939;-66
2023/07/03 15:45:21;;;;;;;;;;;;;;;;;;5049815;28;20003;-65
2023/07/03 15:47:48;;;;;;;;;;;;;;;;;;5048976;28;19931;-67
2023/07/03 15:50:15;;;;;;;;;;;;;;;;;;5049406;28;19927;-65
2023/07/03 15:52:41;;;;;;;;;;;;;;;;;;5049276;28;19948;-67
2023/07/03 15:55:08;;;;;;;;;;;;;;;;;;5049881;28;20314;-66
2023/07/03 15:57:34;;;;;;;;;;;;;;;;;;5049239;28;19925;-66
2023/07/03 16:00:01;;;;;;;;;;;;;;;;;;5049503;28;20020;-64
2023/07/03 16:02:29;;;;;;;;;;;;;;;;;;5053178;28;20007;-66
2023/07/03 16:04:55;;;;;;;;;;;;;;;;;;5053351;28;19931;-66
2023/07/03 16:07:22;;;;;;;;;;;;;;;;;;5053051;28;19972;-66
2023/07/03 16:09:48;;;;;;;;;;;;;;;;;;5052424;28;19925;-66
2023/07/03 16:12:15;;;;;;;;;;;;;;;;;;5053106;28;20019;-67
2023/07/03 16:14:42;;;;;;;;;;;;;;;;;;5052401;28;19925;-66
2023/07/03 16:17:08;;;;;;;;;;;;;;;;;;5053157;28;19924;-67
2023/07/03 16:19:36;;;;;;;;;;;;;;;;;;5052105;28;20294;-67
2023/07/03 16:22:02;;;;;;;;;;;;;;;;;;5052966;28;19931;-66
2023/07/03 16:24:29;;;;;;;;;;;;;;;;;;5052268;28;19931;-66
2023/07/03 16:26:55;;;;;;;;;;;;;;;;;;5052847;28;19931;-66
2023/07/03 16:29:21;;;;;;;;;;;;;;;;;;5052816;28;20021;-66
2023/07/03 16:31:48;;;;;;;;;;;;;;;;;;5051903;28;19924;-66
2023/07/03 16:34:14;;;;;;;;;;;;;;;;;;5052365;28;19989;-67
2023/07/03 16:36:42;;;;;;;;;;;;;;;;;;5052256;28;19936;-66
2023/07/03 16:39:09;;;;;;;;;;;;;;;;;;5052627;28;20409;-66
2023/07/03 16:41:38;;;;;;;;;;;;;;;;;;5051780;28;19931;-66
2023/07/03 16:44:04;;;;;;;;;;;;;;;;;;5052304;28;19932;-66
2023/07/03 16:46:31;;;;;;;;;;;;;;;;;;5051720;28;19929;-66
2023/07/03 16:48:58;;;;;;;;;;;;;;;;;;5052509;28;19931;-66